sensor_id;sensor_type;location;lat;lon;timestamp;pressure;altitude;pressure_sealevel;temperature;humidity
64644;BME280;51056;50.330;7.914;2023-05-22T00:02:55;100338.97;;;15.42;91.28
64644;BME280;51056;50.330;7.914;2023-05-22T00:05:59;100341.94;;;15.38;91.05
64644;BME280;51056;50.330;7.914;2023-05-22T00:09:02;100345.03;;;15.31;91.26
64644;BME280;51056;50.330;7.914;2023-05-22T00:12:06;100346.59;;;15.34;91.34
64644;BME280;51056;50.330;7.914;2023-05-22T00:15:09;100345.03;;;15.31;91.06
64644;BME280;51056;50.330;7.914;2023-05-22T00:18:13;100343.94;;;15.23;91.37
64644;BME280;51056;50.330;7.914;2023-05-22T00:21:16;100346.06;;;15.18;91.58
64644;BME280;51056;50.330;7.914;2023-05-22T00:24:20;100337.47;;;15.16;91.47
64644;BME280;51056;50.330;7.914;2023-05-22T00:27:23;100341.66;;;15.18;91.44
64644;BME280;51056;50.330;7.914;2023-05-22T00:30:27;100335.53;;;15.18;91.06
64644;BME280;51056;50.330;7.914;2023-05-22T00:33:30;100335.78;;;15.15;91.23
64644;BME280;51056;50.330;7.914;2023-05-22T00:36:33;100330.97;;;15.08;91.20
64644;BME280;51056;50.330;7.914;2023-05-22T00:39:37;100329.38;;;15.06;91.64
64644;BME280;51056;50.330;7.914;2023-05-22T00:42:43;100327.78;;;15.16;91.02
64644;BME280;51056;50.330;7.914;2023-05-22T00:45:47;100329.56;;;15.16;90.77
64644;BME280;51056;50.330;7.914;2023-05-22T00:48:50;100333.38;;;15.11;90.77
64644;BME280;51056;50.330;7.914;2023-05-22T00:51:56;100327.84;;;15.03;91.22
64644;BME280;51056;50.330;7.914;2023-05-22T00:55:00;100324.91;;;14.95;91.52
64644;BME280;51056;50.330;7.914;2023-05-22T00:58:07;100325.97;;;14.93;91.64
64644;BME280;51056;50.330;7.914;2023-05-22T01:01:17;100327.69;;;14.94;91.20
64644;BME280;51056;50.330;7.914;2023-05-22T01:04:29;100328.53;;;14.94;91.44
64644;BME280;51056;50.330;7.914;2023-05-22T01:07:37;100331.38;;;14.91;91.35
64644;BME280;51056;50.330;7.914;2023-05-22T01:10:40;100339.28;;;14.91;91.44
64644;BME280;51056;50.330;7.914;2023-05-22T01:13:55;100336.34;;;14.83;91.64
64644;BME280;51056;50.330;7.914;2023-05-22T01:17:18;100336.56;;;14.80;92.12
64644;BME280;51056;50.330;7.914;2023-05-22T01:20:39;100338.50;;;14.78;92.10
64644;BME280;51056;50.330;7.914;2023-05-22T01:30:59;100331.31;;;14.80;92.51
64644;BME280;51056;50.330;7.914;2023-05-22T01:34:04;100326.25;;;14.77;92.14
64644;BME280;51056;50.330;7.914;2023-05-22T01:37:09;100333.66;;;14.72;92.28
64644;BME280;51056;50.330;7.914;2023-05-22T01:40:13;100329.13;;;14.74;91.98
64644;BME280;51056;50.330;7.914;2023-05-22T01:43:16;100335.34;;;14.73;91.97
64644;BME280;51056;50.330;7.914;2023-05-22T01:46:25;100330.03;;;14.61;92.53
64644;BME280;51056;50.330;7.914;2023-05-22T01:49:28;100331.47;;;14.65;92.54
64644;BME280;51056;50.330;7.914;2023-05-22T01:52:47;100333.50;;;14.62;92.19
64644;BME280;51056;50.330;7.914;2023-05-22T01:56:00;100330.97;;;14.60;92.25
64644;BME280;51056;50.330;7.914;2023-05-22T02:00:07;100330.97;;;14.60;92.21
64644;BME280;51056;50.330;7.914;2023-05-22T02:03:07;100336.56;;;14.56;92.93
64644;BME280;51056;50.330;7.914;2023-05-22T02:06:32;100336.34;;;14.59;92.83
64644;BME280;51056;50.330;7.914;2023-05-22T02:09:36;100334.44;;;14.61;92.44
64644;BME280;51056;50.330;7.914;2023-05-22T02:12:40;100331.97;;;14.71;92.17
64644;BME280;51056;50.330;7.914;2023-05-22T02:15:45;100333.28;;;14.65;92.58
64644;BME280;51056;50.330;7.914;2023-05-22T02:18:48;100334.34;;;14.62;93.01
64644;BME280;51056;50.330;7.914;2023-05-22T02:21:53;100337.72;;;14.64;93.13
64644;BME280;51056;50.330;7.914;2023-05-22T02:24:56;100330.75;;;14.63;93.12
64644;BME280;51056;50.330;7.914;2023-05-22T02:27:59;100329.06;;;14.62;93.25
64644;BME280;51056;50.330;7.914;2023-05-22T02:31:03;100330.75;;;14.63;93.43
64644;BME280;51056;50.330;7.914;2023-05-22T02:34:06;100331.94;;;14.59;93.67
64644;BME280;51056;50.330;7.914;2023-05-22T02:37:09;100330.34;;;14.57;93.97
64644;BME280;51056;50.330;7.914;2023-05-22T02:40:13;100319.94;;;14.55;93.93
64644;BME280;51056;50.330;7.914;2023-05-22T02:43:17;100318.16;;;14.56;93.97
64644;BME280;51056;50.330;7.914;2023-05-22T02:46:20;100324.25;;;14.56;93.80
64644;BME280;51056;50.330;7.914;2023-05-22T02:49:24;100318.38;;;14.53;93.79
64644;BME280;51056;50.330;7.914;2023-05-22T02:52:27;100322.47;;;14.44;94.22
64644;BME280;51056;50.330;7.914;2023-05-22T02:55:31;100314.78;;;14.41;94.32
64644;BME280;51056;50.330;7.914;2023-05-22T02:58:34;100324.88;;;14.47;93.59
64644;BME280;51056;50.330;7.914;2023-05-22T03:01:37;100318.88;;;14.45;93.15
64644;BME280;51056;50.330;7.914;2023-05-22T03:04:41;100324.34;;;14.42;93.08
64644;BME280;51056;50.330;7.914;2023-05-22T03:07:45;100330.78;;;14.38;92.94
64644;BME280;51056;50.330;7.914;2023-05-22T03:10:49;100319.34;;;14.39;93.04
64644;BME280;51056;50.330;7.914;2023-05-22T03:13:53;100320.38;;;14.36;93.93
64644;BME280;51056;50.330;7.914;2023-05-22T03:16:56;100322.06;;;14.37;94.62
64644;BME280;51056;50.330;7.914;2023-05-22T03:20:00;100325.88;;;14.33;95.47
64644;BME280;51056;50.330;7.914;2023-05-22T03:23:04;100319.78;;;14.33;95.61
64644;BME280;51056;50.330;7.914;2023-05-22T03:26:08;100319.03;;;14.31;95.98
64644;BME280;51056;50.330;7.914;2023-05-22T03:29:14;100324.72;;;14.25;96.94
64644;BME280;51056;50.330;7.914;2023-05-22T03:32:18;100324.50;;;14.28;96.90
64644;BME280;51056;50.330;7.914;2023-05-22T03:35:22;100327.88;;;14.30;97.19
64644;BME280;51056;50.330;7.914;2023-05-22T03:38:27;100330.94;;;14.24;97.86
64644;BME280;51056;50.330;7.914;2023-05-22T03:41:31;100336.91;;;14.26;98.01
64644;BME280;51056;50.330;7.914;2023-05-22T03:44:34;100334.28;;;14.26;97.96
64644;BME280;51056;50.330;7.914;2023-05-22T03:47:38;100329.97;;;14.25;98.16
64644;BME280;51056;50.330;7.914;2023-05-22T03:50:41;100333.34;;;14.27;98.41
64644;BME280;51056;50.330;7.914;2023-05-22T03:53:44;100332.50;;;14.26;98.62
64644;BME280;51056;50.330;7.914;2023-05-22T03:56:48;100332.50;;;14.26;98.61
64644;BME280;51056;50.330;7.914;2023-05-22T03:59:51;100329.97;;;14.25;98.03
64644;BME280;51056;50.330;7.914;2023-05-22T04:02:54;100329.84;;;14.26;97.81
64644;BME280;51056;50.330;7.914;2023-05-22T04:06:00;100332.63;;;14.25;98.49
64644;BME280;51056;50.330;7.914;2023-05-22T04:09:05;100330.19;;;14.22;98.89
64644;BME280;51056;50.330;7.914;2023-05-22T04:12:08;100330.78;;;14.38;97.73
64644;BME280;51056;50.330;7.914;2023-05-22T04:15:11;100331.41;;;14.41;96.70
64644;BME280;51056;50.330;7.914;2023-05-22T04:18:15;100323.41;;;14.43;96.68
64644;BME280;51056;50.330;7.914;2023-05-22T04:21:18;100336.56;;;14.43;96.72
64644;BME280;51056;50.330;7.914;2023-05-22T04:24:22;100335.22;;;14.37;96.76
64644;BME280;51056;50.330;7.914;2023-05-22T04:27:25;100334.59;;;14.34;96.93
64644;BME280;51056;50.330;7.914;2023-05-22T04:30:31;100334.91;;;14.29;97.71
64644;BME280;51056;50.330;7.914;2023-05-22T04:33:41;100335.78;;;14.30;97.92
64644;BME280;51056;50.330;7.914;2023-05-22T04:36:46;100336.19;;;14.24;97.83
64644;BME280;51056;50.330;7.914;2023-05-22T04:39:49;100340.06;;;14.31;97.30
64644;BME280;51056;50.330;7.914;2023-05-22T04:42:55;100338.19;;;14.33;96.60
64644;BME280;51056;50.330;7.914;2023-05-22T04:46:01;100342.78;;;14.29;97.58
64644;BME280;51056;50.330;7.914;2023-05-22T04:49:04;100350.97;;;14.50;96.66
64644;BME280;51056;50.330;7.914;2023-05-22T04:52:08;100354.78;;;14.46;97.06
64644;BME280;51056;50.330;7.914;2023-05-22T04:55:32;100355.38;;;14.62;96.30
64644;BME280;51056;50.330;7.914;2023-05-22T04:58:57;100355.78;;;14.69;95.98
64644;BME280;51056;50.330;7.914;2023-05-22T05:02:02;100356.44;;;14.60;96.71
64644;BME280;51056;50.330;7.914;2023-05-22T05:05:06;100365.47;;;14.69;96.12
64644;BME280;51056;50.330;7.914;2023-05-22T05:08:09;100370.75;;;14.69;96.18
64644;BME280;51056;50.330;7.914;2023-05-22T05:11:12;100376.88;;;14.56;97.33
64644;BME280;51056;50.330;7.914;2023-05-22T05:14:16;100365.16;;;14.60;98.77
64644;BME280;51056;50.330;7.914;2023-05-22T05:17:20;100367.81;;;14.60;97.63
64644;BME280;51056;50.330;7.914;2023-05-22T05:20:24;100365.16;;;14.60;98.55
64644;BME280;51056;50.330;7.914;2023-05-22T05:23:27;100361.66;;;14.73;97.80
64644;BME280;51056;50.330;7.914;2023-05-22T05:26:31;100366.78;;;14.87;96.54
64644;BME280;51056;50.330;7.914;2023-05-22T05:29:35;100368.44;;;14.88;97.34
64644;BME280;51056;50.330;7.914;2023-05-22T05:32:44;100369.91;;;14.92;97.42
64644;BME280;51056;50.330;7.914;2023-05-22T05:36:07;100367.13;;;15.06;97.46
64644;BME280;51056;50.330;7.914;2023-05-22T05:39:12;100362.84;;;15.17;96.23
64644;BME280;51056;50.330;7.914;2023-05-22T05:42:15;100366.91;;;15.21;96.25
64644;BME280;51056;50.330;7.914;2023-05-22T05:45:21;100368.59;;;15.22;97.02
64644;BME280;51056;50.330;7.914;2023-05-22T05:48:24;100371.75;;;15.27;96.50
64644;BME280;51056;50.330;7.914;2023-05-22T05:51:28;100369.63;;;15.32;97.20
64644;BME280;51056;50.330;7.914;2023-05-22T05:58:25;100371.81;;;15.49;95.94
64644;BME280;51056;50.330;7.914;2023-05-22T06:01:43;100367.97;;;15.53;96.55
64644;BME280;51056;50.330;7.914;2023-05-22T06:04:54;100372.31;;;15.66;96.38
64644;BME280;51056;50.330;7.914;2023-05-22T06:07:58;100370.22;;;15.71;96.33
64644;BME280;51056;50.330;7.914;2023-05-22T06:11:01;100367.38;;;15.85;95.50
64644;BME280;51056;50.330;7.914;2023-05-22T06:14:12;100365.81;;;15.94;95.60
64644;BME280;51056;50.330;7.914;2023-05-22T06:17:15;100367.50;;;16.06;95.05
64644;BME280;51056;50.330;7.914;2023-05-22T06:20:20;100359.09;;;16.23;94.46
64644;BME280;51056;50.330;7.914;2023-05-22T06:23:23;100355.25;;;16.39;94.24
64644;BME280;51056;50.330;7.914;2023-05-22T06:26:27;100361.13;;;16.54;93.20
64644;BME280;51056;50.330;7.914;2023-05-22T06:29:31;100358.47;;;16.65;93.49
64644;BME280;51056;50.330;7.914;2023-05-22T06:32:34;100366.72;;;16.71;93.35
64644;BME280;51056;50.330;7.914;2023-05-22T06:35:38;100367.09;;;16.78;92.84
64644;BME280;51056;50.330;7.914;2023-05-22T06:38:41;100359.41;;;16.86;93.14
64644;BME280;51056;50.330;7.914;2023-05-22T06:41:58;100363.69;;;16.99;92.57
64644;BME280;51056;50.330;7.914;2023-05-22T06:45:01;100359.47;;;17.07;92.95
64644;BME280;51056;50.330;7.914;2023-05-22T06:48:13;100365.19;;;17.12;92.40
64644;BME280;51056;50.330;7.914;2023-05-22T06:51:30;100364.44;;;17.22;91.76
64644;BME280;51056;50.330;7.914;2023-05-22T06:54:40;100362.34;;;17.36;92.61
64644;BME280;51056;50.330;7.914;2023-05-22T06:57:46;100360.91;;;17.53;91.29
64644;BME280;51056;50.330;7.914;2023-05-22T07:00:50;100363.94;;;17.70;90.06
64644;BME280;51056;50.330;7.914;2023-05-22T07:04:01;100367.13;;;17.84;89.43
64644;BME280;51056;50.330;7.914;2023-05-22T07:07:17;100364.41;;;17.96;88.30
64644;BME280;51056;50.330;7.914;2023-05-22T07:10:20;100365.56;;;18.03;87.90
64644;BME280;51056;50.330;7.914;2023-05-22T07:13:23;100371.28;;;18.08;87.98
64644;BME280;51056;50.330;7.914;2023-05-22T07:16:27;100371.22;;;18.19;87.38
64644;BME280;51056;50.330;7.914;2023-05-22T07:19:32;100367.78;;;18.28;87.22
64644;BME280;51056;50.330;7.914;2023-05-22T07:22:39;100363.47;;;18.37;86.96
64644;BME280;51056;50.330;7.914;2023-05-22T07:25:43;100355.69;;;18.45;86.43
64644;BME280;51056;50.330;7.914;2023-05-22T07:28:49;100366.00;;;18.48;86.07
64644;BME280;51056;50.330;7.914;2023-05-22T07:31:52;100366.03;;;18.58;85.91
64644;BME280;51056;50.330;7.914;2023-05-22T07:34:57;100358.22;;;18.66;85.72
64644;BME280;51056;50.330;7.914;2023-05-22T07:38:01;100361.91;;;18.75;85.04
64644;BME280;51056;50.330;7.914;2023-05-22T07:41:04;100359.16;;;18.86;84.15
64644;BME280;51056;50.330;7.914;2023-05-22T07:44:09;100359.28;;;18.94;83.97
64644;BME280;51056;50.330;7.914;2023-05-22T07:47:14;100363.75;;;19.03;83.80
64644;BME280;51056;50.330;7.914;2023-05-22T07:50:18;100361.41;;;19.10;83.56
64644;BME280;51056;50.330;7.914;2023-05-22T07:53:22;100364.31;;;19.17;83.33
64644;BME280;51056;50.330;7.914;2023-05-22T07:56:28;100361.94;;;19.23;83.07
64644;BME280;51056;50.330;7.914;2023-05-22T07:59:33;100365.47;;;19.34;82.71
64644;BME280;51056;50.330;7.914;2023-05-22T08:02:37;100366.66;;;19.49;81.82
64644;BME280;51056;50.330;7.914;2023-05-22T08:05:40;100365.28;;;19.64;81.48
64644;BME280;51056;50.330;7.914;2023-05-22T08:08:43;100370.03;;;19.70;80.68
64644;BME280;51056;50.330;7.914;2023-05-22T08:11:47;100359.41;;;19.70;80.48
64644;BME280;51056;50.330;7.914;2023-05-22T08:14:51;100365.13;;;19.76;80.69
64644;BME280;51056;50.330;7.914;2023-05-22T08:17:55;100359.81;;;19.85;79.70
64644;BME280;51056;50.330;7.914;2023-05-22T08:20:58;100365.78;;;19.87;79.25
64644;BME280;51056;50.330;7.914;2023-05-22T08:24:02;100364.78;;;19.98;79.93
64644;BME280;51056;50.330;7.914;2023-05-22T08:27:05;100362.25;;;20.06;79.68
64644;BME280;51056;50.330;7.914;2023-05-22T08:30:09;100359.84;;;20.13;78.80
64644;BME280;51056;50.330;7.914;2023-05-22T08:33:13;100364.03;;;20.15;79.52
64644;BME280;51056;50.330;7.914;2023-05-22T08:36:17;100358.41;;;20.18;78.98
64644;BME280;51056;50.330;7.914;2023-05-22T08:39:21;100371.00;;;20.16;78.92
64644;BME280;51056;50.330;7.914;2023-05-22T08:42:26;100360.94;;;20.20;78.69
64644;BME280;51056;50.330;7.914;2023-05-22T08:45:31;100363.84;;;20.27;78.56
64644;BME280;51056;50.330;7.914;2023-05-22T08:48:36;100363.25;;;20.33;78.25
64644;BME280;51056;50.330;7.914;2023-05-22T08:51:40;100362.34;;;20.42;77.61
64644;BME280;51056;50.330;7.914;2023-05-22T08:54:51;100352.84;;;20.49;77.62
64644;BME280;51056;50.330;7.914;2023-05-22T08:57:56;100350.75;;;20.53;77.81
64644;BME280;51056;50.330;7.914;2023-05-22T09:01:00;100347.03;;;20.63;77.20
64644;BME280;51056;50.330;7.914;2023-05-22T09:04:04;100342.84;;;20.61;76.87
64644;BME280;51056;50.330;7.914;2023-05-22T09:07:07;100355.34;;;20.78;77.16
64644;BME280;51056;50.330;7.914;2023-05-22T09:10:11;100353.31;;;20.90;76.36
64644;BME280;51056;50.330;7.914;2023-05-22T09:13:28;100344.09;;;20.84;75.89
64644;BME280;51056;50.330;7.914;2023-05-22T09:16:31;100344.94;;;20.85;76.16
64644;BME280;51056;50.330;7.914;2023-05-22T09:19:36;100345.25;;;20.82;75.91
64644;BME280;51056;50.330;7.914;2023-05-22T09:22:39;100337.78;;;20.85;76.27
64644;BME280;51056;50.330;7.914;2023-05-22T09:25:43;100337.38;;;20.90;74.94
64644;BME280;51056;50.330;7.914;2023-05-22T09:28:46;100338.72;;;20.94;73.40
64644;BME280;51056;50.330;7.914;2023-05-22T09:31:50;100341.13;;;21.05;72.50
64644;BME280;51056;50.330;7.914;2023-05-22T09:35:01;100343.97;;;21.04;72.52
64644;BME280;51056;50.330;7.914;2023-05-22T09:38:05;100342.53;;;21.09;71.25
64644;BME280;51056;50.330;7.914;2023-05-22T09:41:08;100342.56;;;21.18;71.72
64644;BME280;51056;50.330;7.914;2023-05-22T09:44:13;100334.59;;;21.18;71.23
64644;BME280;51056;50.330;7.914;2023-05-22T09:47:17;100338.88;;;21.10;71.20
64644;BME280;51056;50.330;7.914;2023-05-22T09:50:20;100336.34;;;21.09;71.32
64644;BME280;51056;50.330;7.914;2023-05-22T09:53:26;100332.94;;;21.17;72.22
64644;BME280;51056;50.330;7.914;2023-05-22T09:56:35;100333.06;;;21.33;72.05
64644;BME280;51056;50.330;7.914;2023-05-22T09:59:39;100332.47;;;21.21;69.44
64644;BME280;51056;50.330;7.914;2023-05-22T10:02:46;100339.16;;;21.25;70.98
64644;BME280;51056;50.330;7.914;2023-05-22T10:05:52;100335.13;;;21.39;71.02
64644;BME280;51056;50.330;7.914;2023-05-22T10:09:04;100336.66;;;21.42;68.83
64644;BME280;51056;50.330;7.914;2023-05-22T10:16:20;100333.22;;;21.49;67.66
64644;BME280;51056;50.330;7.914;2023-05-22T10:19:28;100328.94;;;21.56;67.62
64644;BME280;51056;50.330;7.914;2023-05-22T10:22:36;100330.94;;;21.54;66.72
64644;BME280;51056;50.330;7.914;2023-05-22T10:25:40;100332.13;;;21.60;68.94
64644;BME280;51056;50.330;7.914;2023-05-22T10:28:54;100330.22;;;21.70;68.32
64644;BME280;51056;50.330;7.914;2023-05-22T10:32:22;100323.56;;;21.74;67.95
64644;BME280;51056;50.330;7.914;2023-05-22T10:42:42;100304.50;;;21.87;67.50
64644;BME280;51056;50.330;7.914;2023-05-22T10:46:05;100307.19;;;21.87;67.45
64644;BME280;51056;50.330;7.914;2023-05-22T10:49:19;100299.91;;;21.97;68.75
64644;BME280;51056;50.330;7.914;2023-05-22T10:52:23;100289.84;;;22.17;68.69
64644;BME280;51056;50.330;7.914;2023-05-22T10:55:26;100285.94;;;22.38;68.78
64644;BME280;51056;50.330;7.914;2023-05-22T10:58:32;100281.13;;;22.41;66.95
64644;BME280;51056;50.330;7.914;2023-05-22T11:01:39;100284.94;;;22.31;66.51
64644;BME280;51056;50.330;7.914;2023-05-22T11:04:54;100282.44;;;22.45;66.42
64644;BME280;51056;50.330;7.914;2023-05-22T11:11:29;100283.84;;;22.66;65.93
64644;BME280;51056;50.330;7.914;2023-05-22T11:14:35;100269.34;;;22.77;64.43
64644;BME280;51056;50.330;7.914;2023-05-22T11:20:42;100277.19;;;23.19;63.96
64644;BME280;51056;50.330;7.914;2023-05-22T11:23:46;100271.22;;;23.17;64.10
64644;BME280;51056;50.330;7.914;2023-05-22T11:27:06;100270.53;;;23.31;64.27
64644;BME280;51056;50.330;7.914;2023-05-22T11:30:10;100268.69;;;23.40;62.51
64644;BME280;51056;50.330;7.914;2023-05-22T11:33:15;100264.03;;;23.34;62.26
64644;BME280;51056;50.330;7.914;2023-05-22T11:36:18;100269.19;;;23.35;63.01
64644;BME280;51056;50.330;7.914;2023-05-22T11:39:22;100256.81;;;23.51;62.26
64644;BME280;51056;50.330;7.914;2023-05-22T11:42:25;100251.63;;;23.57;62.07
64644;BME280;51056;50.330;7.914;2023-05-22T11:45:28;100250.28;;;23.70;61.95
64644;BME280;51056;50.330;7.914;2023-05-22T11:48:33;100237.75;;;23.78;61.72
64644;BME280;51056;50.330;7.914;2023-05-22T11:51:38;100237.25;;;24.14;60.93
64644;BME280;51056;50.330;7.914;2023-05-22T11:54:45;100234.88;;;24.19;60.00
64644;BME280;51056;50.330;7.914;2023-05-22T11:57:49;100233.69;;;24.22;58.05
64644;BME280;51056;50.330;7.914;2023-05-22T12:00:57;100228.00;;;24.25;57.87
64644;BME280;51056;50.330;7.914;2023-05-22T12:04:00;100224.38;;;24.49;58.55
64644;BME280;51056;50.330;7.914;2023-05-22T12:07:04;100222.59;;;24.64;55.55
64644;BME280;51056;50.330;7.914;2023-05-22T12:10:07;100224.91;;;24.67;55.48
64644;BME280;51056;50.330;7.914;2023-05-22T12:13:11;100223.22;;;24.66;56.35
64644;BME280;51056;50.330;7.914;2023-05-22T12:16:18;100216.66;;;24.92;56.92
64644;BME280;51056;50.330;7.914;2023-05-22T12:19:24;100217.31;;;24.94;54.41
64644;BME280;51056;50.330;7.914;2023-05-22T12:22:28;100215.31;;;24.96;53.68
64644;BME280;51056;50.330;7.914;2023-05-22T12:25:32;100212.75;;;25.02;53.36
64644;BME280;51056;50.330;7.914;2023-05-22T12:28:37;100222.03;;;25.15;53.26
64644;BME280;51056;50.330;7.914;2023-05-22T12:31:43;100218.97;;;25.33;53.42
64644;BME280;51056;50.330;7.914;2023-05-22T12:34:48;100215.66;;;25.45;52.03
64644;BME280;51056;50.330;7.914;2023-05-22T12:37:52;100220.72;;;25.25;51.77
64644;BME280;51056;50.330;7.914;2023-05-22T12:40:56;100211.78;;;25.48;51.12
64644;BME280;51056;50.330;7.914;2023-05-22T12:44:01;100204.38;;;25.65;51.25
64644;BME280;51056;50.330;7.914;2023-05-22T12:47:06;100221.38;;;25.72;51.49
64644;BME280;51056;50.330;7.914;2023-05-22T12:50:09;100206.34;;;25.86;51.12
64644;BME280;51056;50.330;7.914;2023-05-22T12:53:13;100207.78;;;26.03;50.50
64644;BME280;51056;50.330;7.914;2023-05-22T12:56:16;100202.31;;;26.11;49.34
64644;BME280;51056;50.330;7.914;2023-05-22T12:59:20;100196.94;;;26.11;50.03
64644;BME280;51056;50.330;7.914;2023-05-22T13:02:24;100198.13;;;26.24;50.59
64644;BME280;51056;50.330;7.914;2023-05-22T13:05:28;100206.03;;;25.95;50.34
64644;BME280;51056;50.330;7.914;2023-05-22T13:08:33;100201.25;;;25.76;50.59
64644;BME280;51056;50.330;7.914;2023-05-22T13:11:40;100202.53;;;25.95;49.95
64644;BME280;51056;50.330;7.914;2023-05-22T13:14:43;100194.69;;;26.30;49.69
64644;BME280;51056;50.330;7.914;2023-05-22T13:17:47;100199.28;;;26.57;50.34
64644;BME280;51056;50.330;7.914;2023-05-22T13:20:52;100207.88;;;26.67;50.46
64644;BME280;51056;50.330;7.914;2023-05-22T13:23:58;100207.16;;;26.59;49.59
64644;BME280;51056;50.330;7.914;2023-05-22T13:27:01;100210.44;;;26.61;48.97
64644;BME280;51056;50.330;7.914;2023-05-22T13:30:05;100221.38;;;25.87;50.35
64644;BME280;51056;50.330;7.914;2023-05-22T13:33:09;100219.34;;;26.25;50.08
64644;BME280;51056;50.330;7.914;2023-05-22T13:36:15;100227.59;;;26.45;49.27
64644;BME280;51056;50.330;7.914;2023-05-22T13:39:18;100211.63;;;27.01;48.76
64644;BME280;51056;50.330;7.914;2023-05-22T13:42:21;100216.34;;;27.21;49.42
64644;BME280;51056;50.330;7.914;2023-05-22T13:45:25;100216.88;;;27.79;47.61
64644;BME280;51056;50.330;7.914;2023-05-22T13:48:29;100226.00;;;28.46;47.16
64644;BME280;51056;50.330;7.914;2023-05-22T13:51:32;100212.38;;;28.47;46.20
64644;BME280;51056;50.330;7.914;2023-05-22T13:54:36;100208.47;;;28.63;46.15
64644;BME280;51056;50.330;7.914;2023-05-22T13:57:39;100207.22;;;28.79;45.88
64644;BME280;51056;50.330;7.914;2023-05-22T14:00:43;100210.44;;;28.28;45.73
64644;BME280;51056;50.330;7.914;2023-05-22T14:04:10;100188.41;;;28.66;45.83
64644;BME280;51056;50.330;7.914;2023-05-22T14:07:14;100191.47;;;29.29;45.53
64644;BME280;51056;50.330;7.914;2023-05-22T14:10:18;100191.00;;;28.39;45.42
64644;BME280;51056;50.330;7.914;2023-05-22T14:13:25;100195.53;;;29.65;43.06
64644;BME280;51056;50.330;7.914;2023-05-22T14:16:28;100188.16;;;31.86;39.06
64644;BME280;51056;50.330;7.914;2023-05-22T14:19:32;100193.72;;;31.54;38.29
64644;BME280;51056;50.330;7.914;2023-05-22T14:22:35;100185.63;;;31.54;39.38
64644;BME280;51056;50.330;7.914;2023-05-22T14:25:41;100190.94;;;33.17;36.22
64644;BME280;51056;50.330;7.914;2023-05-22T14:28:47;100175.25;;;32.72;36.54
64644;BME280;51056;50.330;7.914;2023-05-22T14:31:53;100169.47;;;34.36;34.23
64644;BME280;51056;50.330;7.914;2023-05-22T14:34:58;100170.63;;;35.96;30.94
64644;BME280;51056;50.330;7.914;2023-05-22T14:38:02;100173.38;;;35.30;31.94
64644;BME280;51056;50.330;7.914;2023-05-22T14:41:06;100166.50;;;34.21;32.82
64644;BME280;51056;50.330;7.914;2023-05-22T14:44:09;100176.22;;;32.24;36.12
64644;BME280;51056;50.330;7.914;2023-05-22T14:47:12;100176.25;;;34.67;32.57
64644;BME280;51056;50.330;7.914;2023-05-22T14:50:16;100174.50;;;35.34;31.73
64644;BME280;51056;50.330;7.914;2023-05-22T14:53:20;100180.25;;;33.74;33.13
64644;BME280;51056;50.330;7.914;2023-05-22T14:56:23;100179.38;;;33.85;32.73
64644;BME280;51056;50.330;7.914;2023-05-22T14:59:28;100172.00;;;34.09;32.73
64644;BME280;51056;50.330;7.914;2023-05-22T15:02:31;100169.44;;;34.02;32.52
64644;BME280;51056;50.330;7.914;2023-05-22T15:05:34;100179.50;;;33.38;34.49
64644;BME280;51056;50.330;7.914;2023-05-22T15:08:37;100188.31;;;33.57;34.46
64644;BME280;51056;50.330;7.914;2023-05-22T15:11:41;100190.13;;;31.60;37.20
64644;BME280;51056;50.330;7.914;2023-05-22T15:14:47;100206.03;;;30.56;39.20
64644;BME280;51056;50.330;7.914;2023-05-22T15:17:51;100204.56;;;31.29;37.71
64644;BME280;51056;50.330;7.914;2023-05-22T15:20:54;100209.16;;;30.28;39.50
64644;BME280;51056;50.330;7.914;2023-05-22T15:23:57;100211.88;;;29.57;40.85
64644;BME280;51056;50.330;7.914;2023-05-22T15:27:00;100213.00;;;27.88;44.38
64644;BME280;51056;50.330;7.914;2023-05-22T15:30:04;100216.72;;;27.52;45.63
64644;BME280;51056;50.330;7.914;2023-05-22T15:33:10;100219.72;;;26.01;48.46
64644;BME280;51056;50.330;7.914;2023-05-22T15:36:13;100223.41;;;26.36;48.49
64644;BME280;51056;50.330;7.914;2023-05-22T15:39:17;100222.56;;;27.28;46.40
64644;BME280;51056;50.330;7.914;2023-05-22T15:42:22;100224.41;;;26.99;46.50
64644;BME280;51056;50.330;7.914;2023-05-22T15:45:26;100210.84;;;26.58;46.85
64644;BME280;51056;50.330;7.914;2023-05-22T15:48:30;100203.88;;;26.42;48.24
64644;BME280;51056;50.330;7.914;2023-05-22T15:51:34;100208.38;;;27.06;46.22
64644;BME280;51056;50.330;7.914;2023-05-22T15:54:37;100201.19;;;27.41;45.79
64644;BME280;51056;50.330;7.914;2023-05-22T15:57:41;100203.22;;;26.40;47.38
64644;BME280;51056;50.330;7.914;2023-05-22T16:00:44;100198.25;;;26.37;47.88
64644;BME280;51056;50.330;7.914;2023-05-22T16:03:47;100196.22;;;26.60;48.11
64644;BME280;51056;50.330;7.914;2023-05-22T16:06:51;100197.25;;;26.02;49.33
64644;BME280;51056;50.330;7.914;2023-05-22T16:09:54;100193.59;;;26.24;49.12
64644;BME280;51056;50.330;7.914;2023-05-22T16:12:57;100194.44;;;25.88;49.68
64644;BME280;51056;50.330;7.914;2023-05-22T16:16:00;100193.97;;;25.55;50.73
64644;BME280;51056;50.330;7.914;2023-05-22T16:19:07;100197.84;;;25.38;51.12
64644;BME280;51056;50.330;7.914;2023-05-22T16:22:12;100204.41;;;24.82;52.16
64644;BME280;51056;50.330;7.914;2023-05-22T16:25:16;100205.91;;;25.00;52.32
64644;BME280;51056;50.330;7.914;2023-05-22T16:28:20;100204.34;;;25.05;52.61
64644;BME280;51056;50.330;7.914;2023-05-22T16:31:24;100208.91;;;24.82;52.83
64644;BME280;51056;50.330;7.914;2023-05-22T16:34:27;100218.78;;;24.58;54.08
64644;BME280;51056;50.330;7.914;2023-05-22T16:37:34;100227.00;;;24.57;53.89
64644;BME280;51056;50.330;7.914;2023-05-22T16:40:38;100228.66;;;24.58;55.04